TERMINUS DAM (TRM)

Elevation: 752' · KAWEAH R basin · Operator: US Army Corps of Engineers

Provisional data, subject to change.
Query executed Thursday at 18:53:18   clock

Select a sensor type for a plot of data.
Note: Reservoir Flows are daily averages.

Earlier

Date RES ELE    STORAGE    RES CHG    TOC STO    ABV TOC    OUTFLOW    INFLOW    FNF    PPT INC    TEMP MN    TEMP MX    WINDLEN    EVP PAN   
 FEET   AF   AF   AF   AF   CFS   CFS   CFS   INCHES   DEG F   DEG F   MILES   INCHES  
11/19/2014 591.94 15369 52 12000 3369 12 40 40 0.00 12 24 -- 0.11
11/20/2014 592.06 15431 62 12000 3431 12 45 45 0.00 9 20 84 0.08
11/21/2014 592.17 15488 -- 12000 -- 12 42 42 0.00 10 13 56 0.03
11/22/2014 592.28 15545 -- 12000 -- 12 42 42 0.00 8 18 52 0.06
11/23/2014 592.40 15607 -- 12000 3607 12 44 44 0.00 11 17 54 0.05
11/24/2014 592.50 15659 52 12000 3659 12 40 40 0.00 9 18 77 0.07
11/25/2014 592.60 15712 53 12000 3712 12 40 40 0.00 6 19 102 0.08
11/26/2014 592.68 15754 42 12000 3754 12 35 35 0.00 8 22 119 0.10
11/27/2014 592.77 15801 47 12000 3801 12 38 38 0.00 8 22 143 0.12
11/28/2014 592.86 15848 47 12000 3848 12 38 38 0.00 9 26 111 0.13
11/29/2014 592.92 15880 32 12000 3880 12 31 31 0.00 10 24 110 0.13
11/30/2014 593.00 15922 42 12000 3922 12 35 35 0.00 10 21 101 0.10
12/01/2014 593.07 15960 38 12000 3960 11 33 33 0.00 10 23 102 0.10
12/02/2014 593.35 16109 149 12000 4109 12 88 88 0.00 12 18 133 0.05
12/03/2014 594.81 16903 794 12000 4903 12 414 414 0.00 13 25 95 0.09
12/04/2014 595.36 17210 307 12000 5210 12 168 168 0.00 11 23 93 0.09
12/05/2014 595.73 17419 209 12000 5419 12 118 118 0.00 11 20 79 0.07
12/06/2014 596.02 17584 165 12000 5584 12 97 97 0.00 12 21 86 0.08
12/07/2014 596.25 17716 132 12000 5716 12 80 80 0.00 10 22 99 0.09
12/08/2014 596.46 17837 121 12000 5837 12 74 74 0.00 9 20 97 0.08
12/09/2014 596.65 17947 110 12000 5947 12 69 69 0.00 9 18 88 0.06
12/10/2014 596.82 18045 98 12000 6045 12 62 62 0.00 8 17 88 0.05
12/11/2014 596.99 18145 100 12000 6145 11 63 63 0.00 12 19 96 0.10
12/12/2014 597.59 18498 353 11077 7421 11 191 191 0.00 8 24 117 0.09
12/13/2014 598.41 18989 491 10833 8156 9 258 258 0.00 7 17 83 0.06
12/14/2014 598.83 19245 256 10869 8376 9 139 139 0.00 5 14 76 0.05
12/15/2014 599.16 19447 202 10853 8594 9 112 -- 0.00 7 15 90 0.06
12/16/2014 599.49 19651 204 10738 8913 9 114 -- 0.00 10 19 95 0.07
12/17/2014 599.89 19901 250 10726 9175 10 137 -- 0.00 9 13 72 0.04
12/18/2014 -- -- -- -- -- -- -- -- -- -- -- -- --

Later | Latest

Warning! This data is preliminary and subject to revision.

Show TRM Map | Plot TRM Data | 1 Month TRM Data | Real-Time TRM Data | TRM Info